sensor_id;sensor_type;location;lat;lon;timestamp;P1;durP1;ratioP1;P2;durP2;ratioP2
2480;SDS011;57396;48.742;9.128;2023-03-01T00:00:37;36.20;;;23.07;;
2480;SDS011;57396;48.742;9.128;2023-03-01T00:03:02;31.07;;;20.27;;
2480;SDS011;57396;48.742;9.128;2023-03-01T00:05:28;36.00;;;21.23;;
2480;SDS011;57396;48.742;9.128;2023-03-01T00:07:53;40.67;;;21.27;;
2480;SDS011;57396;48.742;9.128;2023-03-01T00:10:19;34.37;;;19.33;;
2480;SDS011;57396;48.742;9.128;2023-03-01T00:12:44;35.23;;;21.83;;
2480;SDS011;57396;48.742;9.128;2023-03-01T00:15:10;50.77;;;28.07;;
2480;SDS011;57396;48.742;9.128;2023-03-01T00:17:36;44.03;;;27.13;;
2480;SDS011;57396;48.742;9.128;2023-03-01T00:20:02;55.77;;;32.30;;
2480;SDS011;57396;48.742;9.128;2023-03-01T00:22:27;62.43;;;34.10;;
2480;SDS011;57396;48.742;9.128;2023-03-01T00:24:55;53.57;;;31.10;;
2480;SDS011;57396;48.742;9.128;2023-03-01T00:27:21;52.60;;;28.87;;
2480;SDS011;57396;48.742;9.128;2023-03-01T00:29:46;35.93;;;22.30;;
2480;SDS011;57396;48.742;9.128;2023-03-01T00:32:11;37.20;;;22.27;;
2480;SDS011;57396;48.742;9.128;2023-03-01T00:34:37;37.67;;;23.20;;
2480;SDS011;57396;48.742;9.128;2023-03-01T00:37:02;38.73;;;23.10;;
2480;SDS011;57396;48.742;9.128;2023-03-01T00:39:30;33.63;;;21.53;;
2480;SDS011;57396;48.742;9.128;2023-03-01T00:41:57;34.73;;;20.30;;
2480;SDS011;57396;48.742;9.128;2023-03-01T00:44:23;37.33;;;22.20;;
2480;SDS011;57396;48.742;9.128;2023-03-01T00:46:48;35.87;;;22.40;;
2480;SDS011;57396;48.742;9.128;2023-03-01T00:49:13;45.50;;;29.47;;
2480;SDS011;57396;48.742;9.128;2023-03-01T00:51:39;52.97;;;31.47;;
2480;SDS011;57396;48.742;9.128;2023-03-01T00:54:09;45.10;;;25.57;;
2480;SDS011;57396;48.742;9.128;2023-03-01T00:56:35;38.97;;;24.70;;
2480;SDS011;57396;48.742;9.128;2023-03-01T00:59:00;38.77;;;25.23;;
2480;SDS011;57396;48.742;9.128;2023-03-01T01:01:28;33.77;;;22.17;;
2480;SDS011;57396;48.742;9.128;2023-03-01T01:06:28;32.50;;;21.03;;
2480;SDS011;57396;48.742;9.128;2023-03-01T01:08:55;35.83;;;22.60;;
2480;SDS011;57396;48.742;9.128;2023-03-01T01:11:21;38.63;;;24.67;;
2480;SDS011;57396;48.742;9.128;2023-03-01T01:13:48;37.43;;;25.47;;
2480;SDS011;57396;48.742;9.128;2023-03-01T01:16:14;39.10;;;23.13;;
2480;SDS011;57396;48.742;9.128;2023-03-01T01:18:41;37.03;;;21.77;;
2480;SDS011;57396;48.742;9.128;2023-03-01T01:21:08;34.00;;;21.27;;
2480;SDS011;57396;48.742;9.128;2023-03-01T01:23:36;31.23;;;20.87;;
2480;SDS011;57396;48.742;9.128;2023-03-01T01:26:05;35.73;;;21.23;;
2480;SDS011;57396;48.742;9.128;2023-03-01T01:28:31;32.10;;;20.10;;
2480;SDS011;57396;48.742;9.128;2023-03-01T01:30:57;33.93;;;19.93;;
2480;SDS011;57396;48.742;9.128;2023-03-01T01:33:22;29.90;;;18.73;;
2480;SDS011;57396;48.742;9.128;2023-03-01T01:35:48;29.77;;;19.37;;
2480;SDS011;57396;48.742;9.128;2023-03-01T01:38:13;30.10;;;18.53;;
2480;SDS011;57396;48.742;9.128;2023-03-01T01:40:42;29.60;;;19.87;;
2480;SDS011;57396;48.742;9.128;2023-03-01T01:43:14;30.77;;;18.93;;
2480;SDS011;57396;48.742;9.128;2023-03-01T01:45:42;29.73;;;18.40;;
2480;SDS011;57396;48.742;9.128;2023-03-01T01:48:10;27.17;;;17.27;;
2480;SDS011;57396;48.742;9.128;2023-03-01T01:50:39;29.13;;;18.37;;
2480;SDS011;57396;48.742;9.128;2023-03-01T01:53:15;29.17;;;18.70;;
2480;SDS011;57396;48.742;9.128;2023-03-01T01:55:44;25.00;;;16.67;;
2480;SDS011;57396;48.742;9.128;2023-03-01T01:58:15;25.27;;;16.17;;
2480;SDS011;57396;48.742;9.128;2023-03-01T02:00:43;27.07;;;16.20;;
2480;SDS011;57396;48.742;9.128;2023-03-01T02:03:43;29.00;;;17.13;;
2480;SDS011;57396;48.742;9.128;2023-03-01T02:06:19;24.57;;;15.03;;
2480;SDS011;57396;48.742;9.128;2023-03-01T02:08:49;29.33;;;16.97;;
2480;SDS011;57396;48.742;9.128;2023-03-01T02:11:16;24.03;;;16.00;;
2480;SDS011;57396;48.742;9.128;2023-03-01T02:13:42;29.00;;;16.73;;
2480;SDS011;57396;48.742;9.128;2023-03-01T02:16:08;25.20;;;16.30;;
2480;SDS011;57396;48.742;9.128;2023-03-01T02:18:35;29.40;;;15.93;;
2480;SDS011;57396;48.742;9.128;2023-03-01T02:23:46;26.83;;;16.20;;
2480;SDS011;57396;48.742;9.128;2023-03-01T02:28:56;26.40;;;16.90;;
2480;SDS011;57396;48.742;9.128;2023-03-01T02:31:22;23.77;;;15.87;;
2480;SDS011;57396;48.742;9.128;2023-03-01T02:34:06;27.63;;;16.07;;
2480;SDS011;57396;48.742;9.128;2023-03-01T02:36:36;26.33;;;17.27;;
2480;SDS011;57396;48.742;9.128;2023-03-01T02:39:05;26.97;;;16.97;;
2480;SDS011;57396;48.742;9.128;2023-03-01T02:41:34;28.67;;;16.80;;
2480;SDS011;57396;48.742;9.128;2023-03-01T02:44:01;28.17;;;16.80;;
2480;SDS011;57396;48.742;9.128;2023-03-01T02:46:27;27.70;;;16.43;;
2480;SDS011;57396;48.742;9.128;2023-03-01T02:48:54;31.00;;;16.83;;
2480;SDS011;57396;48.742;9.128;2023-03-01T02:51:24;26.67;;;17.37;;
2480;SDS011;57396;48.742;9.128;2023-03-01T02:56:50;22.80;;;14.80;;
2480;SDS011;57396;48.742;9.128;2023-03-01T02:59:16;26.23;;;17.10;;
2480;SDS011;57396;48.742;9.128;2023-03-01T03:01:43;27.80;;;16.93;;
2480;SDS011;57396;48.742;9.128;2023-03-01T03:04:10;22.17;;;16.50;;
2480;SDS011;57396;48.742;9.128;2023-03-01T03:06:36;23.10;;;15.67;;
2480;SDS011;57396;48.742;9.128;2023-03-01T03:09:02;23.27;;;15.50;;
2480;SDS011;57396;48.742;9.128;2023-03-01T03:11:28;24.17;;;15.90;;
2480;SDS011;57396;48.742;9.128;2023-03-01T03:13:54;26.03;;;16.77;;
2480;SDS011;57396;48.742;9.128;2023-03-01T03:16:20;22.77;;;16.20;;
2480;SDS011;57396;48.742;9.128;2023-03-01T03:18:46;27.87;;;16.83;;
2480;SDS011;57396;48.742;9.128;2023-03-01T03:21:12;28.90;;;16.97;;
2480;SDS011;57396;48.742;9.128;2023-03-01T03:23:38;24.83;;;16.30;;
2480;SDS011;57396;48.742;9.128;2023-03-01T03:26:04;27.87;;;16.73;;
2480;SDS011;57396;48.742;9.128;2023-03-01T03:28:30;28.07;;;16.57;;
2480;SDS011;57396;48.742;9.128;2023-03-01T03:30:59;24.77;;;17.30;;
2480;SDS011;57396;48.742;9.128;2023-03-01T03:33:31;26.60;;;17.23;;
2480;SDS011;57396;48.742;9.128;2023-03-01T03:35:56;25.00;;;16.60;;
2480;SDS011;57396;48.742;9.128;2023-03-01T03:38:22;26.80;;;18.00;;
2480;SDS011;57396;48.742;9.128;2023-03-01T03:40:52;26.50;;;16.80;;
2480;SDS011;57396;48.742;9.128;2023-03-01T03:43:26;26.60;;;17.43;;
2480;SDS011;57396;48.742;9.128;2023-03-01T03:45:51;26.77;;;16.87;;
2480;SDS011;57396;48.742;9.128;2023-03-01T03:48:17;28.47;;;16.50;;
2480;SDS011;57396;48.742;9.128;2023-03-01T03:50:47;24.83;;;16.30;;
2480;SDS011;57396;48.742;9.128;2023-03-01T03:53:13;29.70;;;17.17;;
2480;SDS011;57396;48.742;9.128;2023-03-01T03:55:38;25.67;;;16.47;;
2480;SDS011;57396;48.742;9.128;2023-03-01T03:58:05;26.13;;;16.90;;
2480;SDS011;57396;48.742;9.128;2023-03-01T04:00:35;26.03;;;17.70;;
2480;SDS011;57396;48.742;9.128;2023-03-01T04:03:02;26.00;;;16.53;;
2480;SDS011;57396;48.742;9.128;2023-03-01T04:05:28;26.00;;;17.50;;
2480;SDS011;57396;48.742;9.128;2023-03-01T04:07:54;26.87;;;16.93;;
2480;SDS011;57396;48.742;9.128;2023-03-01T04:10:36;25.73;;;15.70;;
2480;SDS011;57396;48.742;9.128;2023-03-01T04:13:03;30.20;;;17.27;;
2480;SDS011;57396;48.742;9.128;2023-03-01T04:15:30;29.30;;;17.63;;
2480;SDS011;57396;48.742;9.128;2023-03-01T04:17:56;25.67;;;16.90;;
2480;SDS011;57396;48.742;9.128;2023-03-01T04:20:23;25.50;;;16.73;;
2480;SDS011;57396;48.742;9.128;2023-03-01T04:22:49;28.10;;;17.70;;
2480;SDS011;57396;48.742;9.128;2023-03-01T04:25:39;28.00;;;18.20;;
2480;SDS011;57396;48.742;9.128;2023-03-01T04:28:07;28.03;;;16.97;;
2480;SDS011;57396;48.742;9.128;2023-03-01T04:30:34;26.40;;;16.70;;
2480;SDS011;57396;48.742;9.128;2023-03-01T04:33:06;28.40;;;17.40;;
2480;SDS011;57396;48.742;9.128;2023-03-01T04:35:33;26.37;;;16.70;;
2480;SDS011;57396;48.742;9.128;2023-03-01T04:38:00;27.67;;;17.63;;
2480;SDS011;57396;48.742;9.128;2023-03-01T04:40:25;26.93;;;18.20;;
2480;SDS011;57396;48.742;9.128;2023-03-01T04:42:51;27.27;;;17.80;;
2480;SDS011;57396;48.742;9.128;2023-03-01T04:45:16;29.03;;;18.70;;
2480;SDS011;57396;48.742;9.128;2023-03-01T04:47:42;27.47;;;19.00;;
2480;SDS011;57396;48.742;9.128;2023-03-01T04:50:10;28.40;;;19.20;;
2480;SDS011;57396;48.742;9.128;2023-03-01T04:52:36;27.80;;;17.53;;
2480;SDS011;57396;48.742;9.128;2023-03-01T04:55:02;34.13;;;21.57;;
2480;SDS011;57396;48.742;9.128;2023-03-01T04:57:28;33.20;;;20.17;;
2480;SDS011;57396;48.742;9.128;2023-03-01T04:59:54;28.87;;;18.90;;
2480;SDS011;57396;48.742;9.128;2023-03-01T05:02:19;30.13;;;19.60;;
2480;SDS011;57396;48.742;9.128;2023-03-01T05:04:45;28.23;;;18.20;;
2480;SDS011;57396;48.742;9.128;2023-03-01T05:07:10;28.50;;;18.30;;
2480;SDS011;57396;48.742;9.128;2023-03-01T05:09:38;30.40;;;19.83;;
2480;SDS011;57396;48.742;9.128;2023-03-01T05:12:03;28.40;;;19.00;;
2480;SDS011;57396;48.742;9.128;2023-03-01T05:14:29;28.50;;;18.67;;
2480;SDS011;57396;48.742;9.128;2023-03-01T05:16:54;27.70;;;18.60;;
2480;SDS011;57396;48.742;9.128;2023-03-01T05:19:20;32.30;;;18.50;;
2480;SDS011;57396;48.742;9.128;2023-03-01T05:21:47;27.03;;;17.83;;
2480;SDS011;57396;48.742;9.128;2023-03-01T05:24:32;26.20;;;17.80;;
2480;SDS011;57396;48.742;9.128;2023-03-01T05:26:58;26.13;;;17.17;;
2480;SDS011;57396;48.742;9.128;2023-03-01T05:29:25;29.77;;;17.20;;
2480;SDS011;57396;48.742;9.128;2023-03-01T05:31:58;26.33;;;18.03;;
2480;SDS011;57396;48.742;9.128;2023-03-01T05:34:26;43.70;;;24.83;;
2480;SDS011;57396;48.742;9.128;2023-03-01T05:36:53;30.77;;;19.90;;
2480;SDS011;57396;48.742;9.128;2023-03-01T05:39:23;33.17;;;21.73;;
2480;SDS011;57396;48.742;9.128;2023-03-01T05:41:54;38.10;;;24.60;;
2480;SDS011;57396;48.742;9.128;2023-03-01T05:44:20;43.03;;;25.83;;
2480;SDS011;57396;48.742;9.128;2023-03-01T05:46:46;31.57;;;20.43;;
2480;SDS011;57396;48.742;9.128;2023-03-01T05:49:12;39.30;;;22.73;;
2480;SDS011;57396;48.742;9.128;2023-03-01T05:51:39;34.77;;;22.57;;
2480;SDS011;57396;48.742;9.128;2023-03-01T05:54:05;29.87;;;20.20;;
2480;SDS011;57396;48.742;9.128;2023-03-01T05:56:32;32.07;;;20.03;;
2480;SDS011;57396;48.742;9.128;2023-03-01T05:59:01;28.43;;;18.30;;
2480;SDS011;57396;48.742;9.128;2023-03-01T06:01:27;30.00;;;19.23;;
2480;SDS011;57396;48.742;9.128;2023-03-01T06:03:53;30.67;;;19.00;;
2480;SDS011;57396;48.742;9.128;2023-03-01T06:06:18;31.00;;;19.47;;
2480;SDS011;57396;48.742;9.128;2023-03-01T06:08:44;30.93;;;19.27;;
2480;SDS011;57396;48.742;9.128;2023-03-01T06:11:09;33.83;;;19.60;;
2480;SDS011;57396;48.742;9.128;2023-03-01T06:13:35;32.87;;;20.90;;
2480;SDS011;57396;48.742;9.128;2023-03-01T06:16:00;32.53;;;18.20;;
2480;SDS011;57396;48.742;9.128;2023-03-01T06:18:29;30.40;;;18.70;;
2480;SDS011;57396;48.742;9.128;2023-03-01T06:20:54;26.47;;;17.93;;
2480;SDS011;57396;48.742;9.128;2023-03-01T06:23:22;26.73;;;18.10;;
2480;SDS011;57396;48.742;9.128;2023-03-01T06:25:48;28.37;;;17.53;;
2480;SDS011;57396;48.742;9.128;2023-03-01T06:28:13;32.63;;;19.30;;
2480;SDS011;57396;48.742;9.128;2023-03-01T06:30:38;33.40;;;20.40;;
2480;SDS011;57396;48.742;9.128;2023-03-01T06:33:04;31.83;;;18.90;;
2480;SDS011;57396;48.742;9.128;2023-03-01T06:35:29;32.37;;;19.07;;
2480;SDS011;57396;48.742;9.128;2023-03-01T06:37:56;27.43;;;17.80;;
2480;SDS011;57396;48.742;9.128;2023-03-01T06:40:22;30.50;;;19.37;;
2480;SDS011;57396;48.742;9.128;2023-03-01T06:42:48;30.77;;;18.60;;
2480;SDS011;57396;48.742;9.128;2023-03-01T06:45:14;33.40;;;19.83;;
2480;SDS011;57396;48.742;9.128;2023-03-01T06:47:40;27.07;;;17.93;;
2480;SDS011;57396;48.742;9.128;2023-03-01T06:50:06;33.03;;;19.70;;
2480;SDS011;57396;48.742;9.128;2023-03-01T06:52:32;29.70;;;18.03;;
2480;SDS011;57396;48.742;9.128;2023-03-01T06:54:57;29.93;;;18.87;;
2480;SDS011;57396;48.742;9.128;2023-03-01T06:57:23;32.77;;;19.60;;
2480;SDS011;57396;48.742;9.128;2023-03-01T06:59:49;28.87;;;19.37;;
2480;SDS011;57396;48.742;9.128;2023-03-01T07:02:14;27.93;;;18.90;;
2480;SDS011;57396;48.742;9.128;2023-03-01T07:04:40;29.60;;;18.70;;
2480;SDS011;57396;48.742;9.128;2023-03-01T07:07:06;29.07;;;19.00;;
2480;SDS011;57396;48.742;9.128;2023-03-01T07:09:31;30.07;;;18.80;;
2480;SDS011;57396;48.742;9.128;2023-03-01T07:11:57;27.00;;;18.90;;
2480;SDS011;57396;48.742;9.128;2023-03-01T07:14:22;30.70;;;19.03;;
2480;SDS011;57396;48.742;9.128;2023-03-01T07:16:49;28.63;;;19.80;;
2480;SDS011;57396;48.742;9.128;2023-03-01T07:19:15;31.40;;;18.33;;
2480;SDS011;57396;48.742;9.128;2023-03-01T07:21:40;33.50;;;19.73;;
2480;SDS011;57396;48.742;9.128;2023-03-01T07:24:06;36.13;;;21.27;;
2480;SDS011;57396;48.742;9.128;2023-03-01T07:26:32;26.47;;;17.47;;
2480;SDS011;57396;48.742;9.128;2023-03-01T07:29:01;30.50;;;18.60;;
2480;SDS011;57396;48.742;9.128;2023-03-01T07:31:27;29.63;;;20.03;;
2480;SDS011;57396;48.742;9.128;2023-03-01T07:33:53;36.13;;;20.13;;
2480;SDS011;57396;48.742;9.128;2023-03-01T07:36:19;42.43;;;20.77;;
2480;SDS011;57396;48.742;9.128;2023-03-01T07:38:44;30.03;;;19.50;;
2480;SDS011;57396;48.742;9.128;2023-03-01T07:41:10;31.17;;;20.53;;
2480;SDS011;57396;48.742;9.128;2023-03-01T07:43:35;34.93;;;19.87;;
2480;SDS011;57396;48.742;9.128;2023-03-01T07:46:01;32.87;;;21.10;;
2480;SDS011;57396;48.742;9.128;2023-03-01T07:48:26;29.13;;;20.13;;
2480;SDS011;57396;48.742;9.128;2023-03-01T07:50:52;33.77;;;18.90;;
2480;SDS011;57396;48.742;9.128;2023-03-01T07:53:18;31.50;;;19.90;;
2480;SDS011;57396;48.742;9.128;2023-03-01T07:55:43;33.17;;;21.10;;
2480;SDS011;57396;48.742;9.128;2023-03-01T07:58:09;30.63;;;19.00;;
2480;SDS011;57396;48.742;9.128;2023-03-01T08:00:34;32.10;;;20.30;;
2480;SDS011;57396;48.742;9.128;2023-03-01T08:03:00;34.30;;;19.90;;
2480;SDS011;57396;48.742;9.128;2023-03-01T08:05:26;33.43;;;21.03;;
2480;SDS011;57396;48.742;9.128;2023-03-01T08:07:51;32.63;;;20.30;;
2480;SDS011;57396;48.742;9.128;2023-03-01T08:10:17;32.07;;;20.07;;
2480;SDS011;57396;48.742;9.128;2023-03-01T08:12:42;30.40;;;20.40;;
2480;SDS011;57396;48.742;9.128;2023-03-01T08:15:08;31.83;;;20.27;;
2480;SDS011;57396;48.742;9.128;2023-03-01T08:17:34;35.57;;;20.50;;
2480;SDS011;57396;48.742;9.128;2023-03-01T08:19:59;32.90;;;21.07;;
2480;SDS011;57396;48.742;9.128;2023-03-01T08:22:25;31.57;;;20.03;;
2480;SDS011;57396;48.742;9.128;2023-03-01T08:24:50;29.53;;;19.50;;
2480;SDS011;57396;48.742;9.128;2023-03-01T08:27:16;31.63;;;20.30;;
2480;SDS011;57396;48.742;9.128;2023-03-01T08:29:42;32.13;;;20.73;;
2480;SDS011;57396;48.742;9.128;2023-03-01T08:32:07;38.53;;;19.77;;
2480;SDS011;57396;48.742;9.128;2023-03-01T08:34:33;30.97;;;18.97;;
2480;SDS011;57396;48.742;9.128;2023-03-01T08:37:00;32.10;;;20.83;;
2480;SDS011;57396;48.742;9.128;2023-03-01T08:39:26;32.60;;;20.90;;
2480;SDS011;57396;48.742;9.128;2023-03-01T08:41:52;31.03;;;20.93;;
2480;SDS011;57396;48.742;9.128;2023-03-01T08:44:18;32.87;;;20.43;;
2480;SDS011;57396;48.742;9.128;2023-03-01T08:46:44;29.83;;;20.67;;
2480;SDS011;57396;48.742;9.128;2023-03-01T08:49:11;28.97;;;20.87;;
2480;SDS011;57396;48.742;9.128;2023-03-01T08:51:38;34.90;;;21.77;;
2480;SDS011;57396;48.742;9.128;2023-03-01T08:54:04;27.13;;;19.40;;
2480;SDS011;57396;48.742;9.128;2023-03-01T08:56:37;31.00;;;21.53;;
2480;SDS011;57396;48.742;9.128;2023-03-01T08:59:02;30.00;;;19.83;;
2480;SDS011;57396;48.742;9.128;2023-03-01T09:01:28;31.10;;;22.77;;
2480;SDS011;57396;48.742;9.128;2023-03-01T09:03:53;32.90;;;20.57;;
2480;SDS011;57396;48.742;9.128;2023-03-01T09:06:19;32.47;;;20.17;;
2480;SDS011;57396;48.742;9.128;2023-03-01T09:08:45;28.67;;;19.70;;
2480;SDS011;57396;48.742;9.128;2023-03-01T09:11:13;32.30;;;20.37;;
2480;SDS011;57396;48.742;9.128;2023-03-01T09:13:41;30.37;;;20.30;;
2480;SDS011;57396;48.742;9.128;2023-03-01T09:16:07;29.10;;;21.00;;
2480;SDS011;57396;48.742;9.128;2023-03-01T09:18:33;30.60;;;21.10;;
2480;SDS011;57396;48.742;9.128;2023-03-01T09:21:03;32.90;;;21.80;;
2480;SDS011;57396;48.742;9.128;2023-03-01T09:23:34;29.27;;;21.23;;
2480;SDS011;57396;48.742;9.128;2023-03-01T09:26:01;32.10;;;21.40;;
2480;SDS011;57396;48.742;9.128;2023-03-01T09:28:27;29.80;;;19.53;;
2480;SDS011;57396;48.742;9.128;2023-03-01T09:30:52;29.30;;;20.53;;
2480;SDS011;57396;48.742;9.128;2023-03-01T09:33:18;30.33;;;20.60;;
2480;SDS011;57396;48.742;9.128;2023-03-01T09:35:43;32.83;;;20.00;;
2480;SDS011;57396;48.742;9.128;2023-03-01T09:38:14;31.70;;;20.70;;
2480;SDS011;57396;48.742;9.128;2023-03-01T09:40:43;36.17;;;21.73;;
2480;SDS011;57396;48.742;9.128;2023-03-01T09:43:15;27.23;;;19.80;;
2480;SDS011;57396;48.742;9.128;2023-03-01T09:45:45;27.93;;;19.90;;
2480;SDS011;57396;48.742;9.128;2023-03-01T09:48:19;29.93;;;21.10;;
2480;SDS011;57396;48.742;9.128;2023-03-01T09:50:47;30.63;;;20.80;;
2480;SDS011;57396;48.742;9.128;2023-03-01T09:53:15;30.97;;;20.80;;
2480;SDS011;57396;48.742;9.128;2023-03-01T09:55:55;32.50;;;21.20;;
2480;SDS011;57396;48.742;9.128;2023-03-01T09:58:34;28.67;;;20.50;;
2480;SDS011;57396;48.742;9.128;2023-03-01T10:01:40;32.07;;;22.07;;
2480;SDS011;57396;48.742;9.128;2023-03-01T10:06:38;31.20;;;21.00;;
2480;SDS011;57396;48.742;9.128;2023-03-01T10:09:08;30.60;;;20.43;;
2480;SDS011;57396;48.742;9.128;2023-03-01T10:11:41;35.33;;;21.00;;
2480;SDS011;57396;48.742;9.128;2023-03-01T10:16:55;28.07;;;19.43;;
2480;SDS011;57396;48.742;9.128;2023-03-01T10:22:35;29.93;;;19.83;;
2480;SDS011;57396;48.742;9.128;2023-03-01T10:25:02;27.43;;;20.70;;
2480;SDS011;57396;48.742;9.128;2023-03-01T10:27:41;24.53;;;19.00;;
2480;SDS011;57396;48.742;9.128;2023-03-01T10:30:22;25.37;;;18.77;;
2480;SDS011;57396;48.742;9.128;2023-03-01T10:32:57;29.17;;;19.80;;
2480;SDS011;57396;48.742;9.128;2023-03-01T10:35:24;27.57;;;19.07;;
2480;SDS011;57396;48.742;9.128;2023-03-01T10:51:43;27.70;;;19.33;;
2480;SDS011;57396;48.742;9.128;2023-03-01T10:56:59;24.10;;;18.63;;
2480;SDS011;57396;48.742;9.128;2023-03-01T10:59:27;26.47;;;19.43;;
2480;SDS011;57396;48.742;9.128;2023-03-01T11:07:32;23.77;;;18.50;;
2480;SDS011;57396;48.742;9.128;2023-03-01T11:10:16;29.90;;;18.97;;
2480;SDS011;57396;48.742;9.128;2023-03-01T11:12:46;22.80;;;18.37;;
2480;SDS011;57396;48.742;9.128;2023-03-01T11:15:25;26.20;;;19.73;;
2480;SDS011;57396;48.742;9.128;2023-03-01T11:17:52;28.70;;;20.13;;
2480;SDS011;57396;48.742;9.128;2023-03-01T11:20:27;28.70;;;19.07;;
2480;SDS011;57396;48.742;9.128;2023-03-01T11:23:05;25.13;;;18.50;;
2480;SDS011;57396;48.742;9.128;2023-03-01T11:25:35;28.20;;;19.33;;
2480;SDS011;57396;48.742;9.128;2023-03-01T11:28:03;26.70;;;19.20;;
2480;SDS011;57396;48.742;9.128;2023-03-01T11:33:39;25.10;;;18.10;;
2480;SDS011;57396;48.742;9.128;2023-03-01T11:36:19;22.63;;;17.80;;
2480;SDS011;57396;48.742;9.128;2023-03-01T11:38:53;21.50;;;18.10;;
2480;SDS011;57396;48.742;9.128;2023-03-01T11:41:20;23.10;;;17.40;;
2480;SDS011;57396;48.742;9.128;2023-03-01T11:49:03;24.93;;;17.77;;
2480;SDS011;57396;48.742;9.128;2023-03-01T12:00:52;26.67;;;18.57;;
2480;SDS011;57396;48.742;9.128;2023-03-01T12:06:41;23.60;;;17.97;;
2480;SDS011;57396;48.742;9.128;2023-03-01T12:09:24;23.10;;;17.87;;
2480;SDS011;57396;48.742;9.128;2023-03-01T12:18:34;27.40;;;19.17;;
2480;SDS011;57396;48.742;9.128;2023-03-01T12:23:53;24.03;;;18.07;;
2480;SDS011;57396;48.742;9.128;2023-03-01T12:29:02;23.57;;;18.00;;
2480;SDS011;57396;48.742;9.128;2023-03-01T12:41:01;25.87;;;18.93;;
2480;SDS011;57396;48.742;9.128;2023-03-01T12:48:39;22.97;;;16.50;;
2480;SDS011;57396;48.742;9.128;2023-03-01T12:51:09;22.53;;;16.27;;
2480;SDS011;57396;48.742;9.128;2023-03-01T12:53:45;21.10;;;16.00;;
2480;SDS011;57396;48.742;9.128;2023-03-01T12:56:20;20.40;;;15.50;;
2480;SDS011;57396;48.742;9.128;2023-03-01T12:59:06;22.60;;;18.13;;
2480;SDS011;57396;48.742;9.128;2023-03-01T13:01:54;25.67;;;16.70;;
2480;SDS011;57396;48.742;9.128;2023-03-01T13:07:14;20.20;;;16.07;;
2480;SDS011;57396;48.742;9.128;2023-03-01T13:17:49;22.40;;;15.40;;
2480;SDS011;57396;48.742;9.128;2023-03-01T13:20:20;18.40;;;14.67;;
2480;SDS011;57396;48.742;9.128;2023-03-01T13:22:48;23.23;;;15.63;;
2480;SDS011;57396;48.742;9.128;2023-03-01T13:25:30;22.63;;;16.63;;
2480;SDS011;57396;48.742;9.128;2023-03-01T13:30:59;42.23;;;25.40;;
2480;SDS011;57396;48.742;9.128;2023-03-01T13:35:53;24.23;;;16.30;;
2480;SDS011;57396;48.742;9.128;2023-03-01T13:41:15;22.53;;;15.10;;
2480;SDS011;57396;48.742;9.128;2023-03-01T13:43:43;16.57;;;13.80;;
2480;SDS011;57396;48.742;9.128;2023-03-01T13:46:22;23.47;;;14.90;;
2480;SDS011;57396;48.742;9.128;2023-03-01T13:48:54;21.40;;;15.00;;
2480;SDS011;57396;48.742;9.128;2023-03-01T13:51:23;22.40;;;16.23;;
2480;SDS011;57396;48.742;9.128;2023-03-01T13:53:51;23.00;;;16.70;;
2480;SDS011;57396;48.742;9.128;2023-03-01T13:56:24;22.17;;;16.30;;
2480;SDS011;57396;48.742;9.128;2023-03-01T14:01:38;24.63;;;17.07;;
2480;SDS011;57396;48.742;9.128;2023-03-01T14:04:17;24.50;;;16.57;;
2480;SDS011;57396;48.742;9.128;2023-03-01T14:06:46;25.40;;;16.77;;
2480;SDS011;57396;48.742;9.128;2023-03-01T14:09:18;23.43;;;17.70;;
2480;SDS011;57396;48.742;9.128;2023-03-01T14:11:52;22.37;;;17.63;;
2480;SDS011;57396;48.742;9.128;2023-03-01T14:19:37;25.00;;;18.27;;
2480;SDS011;57396;48.742;9.128;2023-03-01T14:24:54;23.83;;;16.50;;
2480;SDS011;57396;48.742;9.128;2023-03-01T14:27:21;24.83;;;17.90;;
2480;SDS011;57396;48.742;9.128;2023-03-01T14:29:56;25.57;;;17.77;;
2480;SDS011;57396;48.742;9.128;2023-03-01T14:32:27;30.20;;;18.73;;
2480;SDS011;57396;48.742;9.128;2023-03-01T14:34:54;27.07;;;19.73;;
2480;SDS011;57396;48.742;9.128;2023-03-01T14:39:45;23.60;;;18.40;;
2480;SDS011;57396;48.742;9.128;2023-03-01T14:42:11;27.77;;;19.07;;
2480;SDS011;57396;48.742;9.128;2023-03-01T14:44:37;27.33;;;19.90;;
2480;SDS011;57396;48.742;9.128;2023-03-01T14:47:03;26.50;;;20.07;;
2480;SDS011;57396;48.742;9.128;2023-03-01T14:49:30;28.83;;;18.67;;
2480;SDS011;57396;48.742;9.128;2023-03-01T14:52:06;26.47;;;19.80;;
2480;SDS011;57396;48.742;9.128;2023-03-01T14:54:37;28.27;;;19.30;;
2480;SDS011;57396;48.742;9.128;2023-03-01T14:57:05;30.23;;;20.33;;
2480;SDS011;57396;48.742;9.128;2023-03-01T14:59:37;30.87;;;19.60;;
2480;SDS011;57396;48.742;9.128;2023-03-01T15:02:03;31.00;;;22.10;;
2480;SDS011;57396;48.742;9.128;2023-03-01T15:04:28;27.13;;;19.07;;
2480;SDS011;57396;48.742;9.128;2023-03-01T15:06:55;28.80;;;20.10;;
2480;SDS011;57396;48.742;9.128;2023-03-01T15:09:21;26.80;;;19.30;;
2480;SDS011;57396;48.742;9.128;2023-03-01T15:11:46;28.10;;;19.17;;
2480;SDS011;57396;48.742;9.128;2023-03-01T15:14:25;25.40;;;18.23;;
2480;SDS011;57396;48.742;9.128;2023-03-01T15:16:51;27.17;;;19.33;;
2480;SDS011;57396;48.742;9.128;2023-03-01T15:19:17;25.03;;;17.93;;
2480;SDS011;57396;48.742;9.128;2023-03-01T15:21:44;31.50;;;19.47;;
2480;SDS011;57396;48.742;9.128;2023-03-01T15:26:44;27.50;;;19.40;;
2480;SDS011;57396;48.742;9.128;2023-03-01T15:29:19;24.90;;;18.80;;
2480;SDS011;57396;48.742;9.128;2023-03-01T15:34:31;27.33;;;19.57;;
2480;SDS011;57396;48.742;9.128;2023-03-01T15:36:59;32.53;;;21.73;;
2480;SDS011;57396;48.742;9.128;2023-03-01T15:42:47;32.93;;;20.47;;
2480;SDS011;57396;48.742;9.128;2023-03-01T15:45:06;29.83;;;21.07;;
2480;SDS011;57396;48.742;9.128;2023-03-01T15:47:33;31.33;;;19.60;;
2480;SDS011;57396;48.742;9.128;2023-03-01T15:49:59;30.00;;;20.00;;
2480;SDS011;57396;48.742;9.128;2023-03-01T15:52:35;28.27;;;19.20;;
2480;SDS011;57396;48.742;9.128;2023-03-01T15:55:15;26.53;;;18.83;;
2480;SDS011;57396;48.742;9.128;2023-03-01T15:57:42;29.97;;;19.53;;
2480;SDS011;57396;48.742;9.128;2023-03-01T16:00:11;29.80;;;19.50;;
2480;SDS011;57396;48.742;9.128;2023-03-01T16:02:38;28.00;;;18.97;;
2480;SDS011;57396;48.742;9.128;2023-03-01T16:05:05;31.90;;;19.50;;
2480;SDS011;57396;48.742;9.128;2023-03-01T16:07:35;30.87;;;18.77;;
2480;SDS011;57396;48.742;9.128;2023-03-01T16:10:04;28.80;;;19.17;;
2480;SDS011;57396;48.742;9.128;2023-03-01T16:12:30;35.30;;;18.60;;
2480;SDS011;57396;48.742;9.128;2023-03-01T16:14:55;31.30;;;18.03;;
2480;SDS011;57396;48.742;9.128;2023-03-01T16:17:43;30.17;;;18.43;;
2480;SDS011;57396;48.742;9.128;2023-03-01T16:20:08;27.27;;;18.57;;
2480;SDS011;57396;48.742;9.128;2023-03-01T16:22:34;27.00;;;18.53;;
2480;SDS011;57396;48.742;9.128;2023-03-01T16:25:00;28.77;;;18.80;;
2480;SDS011;57396;48.742;9.128;2023-03-01T16:27:25;25.50;;;18.20;;
2480;SDS011;57396;48.742;9.128;2023-03-01T16:29:50;27.90;;;17.87;;
2480;SDS011;57396;48.742;9.128;2023-03-01T16:32:16;27.70;;;18.27;;
2480;SDS011;57396;48.742;9.128;2023-03-01T16:34:41;29.47;;;18.50;;
2480;SDS011;57396;48.742;9.128;2023-03-01T16:37:07;24.77;;;17.60;;
2480;SDS011;57396;48.742;9.128;2023-03-01T16:39:32;29.80;;;17.00;;
2480;SDS011;57396;48.742;9.128;2023-03-01T16:41:59;26.63;;;16.77;;
2480;SDS011;57396;48.742;9.128;2023-03-01T16:44:25;29.50;;;19.33;;
2480;SDS011;57396;48.742;9.128;2023-03-01T16:46:51;29.30;;;18.10;;
2480;SDS011;57396;48.742;9.128;2023-03-01T16:49:30;28.13;;;17.60;;